createdAt,value
2023-04-26T00:00:58.188Z,94.10
2023-04-26T00:06:05.544Z,93.90
2023-04-26T00:11:07.348Z,93.70
2023-04-26T00:16:09.164Z,93.70
2023-04-26T00:21:11.099Z,93.80
2023-04-26T00:26:12.962Z,93.70
2023-04-26T00:31:16.040Z,94.20
2023-04-26T00:36:19.389Z,94.40
2023-04-26T00:41:22.040Z,94.70
2023-04-26T00:46:23.943Z,95.10
2023-04-26T00:51:27.194Z,95.30
2023-04-26T00:56:29.584Z,95.00
2023-04-26T01:01:31.416Z,95.00
2023-04-26T01:06:38.392Z,94.80
2023-04-26T01:11:41.046Z,94.50
2023-04-26T01:16:46.895Z,94.40
2023-04-26T01:21:49.829Z,94.40
2023-04-26T01:26:51.638Z,94.00
2023-04-26T01:31:53.417Z,94.00
2023-04-26T01:36:55.244Z,93.90
2023-04-26T01:41:58.649Z,94.00
2023-04-26T01:47:00.589Z,94.00
2023-04-26T01:52:02.621Z,93.90
2023-04-26T01:57:04.875Z,94.10
2023-04-26T02:02:06.957Z,94.10
2023-04-26T02:07:08.913Z,94.10
2023-04-26T02:12:10.717Z,94.10
2023-04-26T02:17:12.576Z,94.10
2023-04-26T02:22:14.533Z,94.10
2023-04-26T02:27:16.444Z,94.10
2023-04-26T02:32:18.271Z,94.30
2023-04-26T02:37:21.915Z,94.60
2023-04-26T02:42:23.783Z,95.10
2023-04-26T02:47:25.613Z,95.60
2023-04-26T02:52:27.468Z,95.70
2023-04-26T02:57:31.739Z,95.90
2023-04-26T03:02:33.829Z,95.90
2023-04-26T03:07:35.815Z,95.80
2023-04-26T03:12:37.669Z,95.90
2023-04-26T03:17:39.573Z,96.00
2023-04-26T03:22:41.518Z,95.90
2023-04-26T03:27:43.498Z,95.80
2023-04-26T03:32:45.379Z,95.80
2023-04-26T03:37:47.372Z,95.80
2023-04-26T03:42:49.229Z,95.80
2023-04-26T03:47:51.637Z,96.20
2023-04-26T03:52:54.009Z,96.10
2023-04-26T03:57:56.544Z,96.00
2023-04-26T04:02:58.888Z,95.90
2023-04-26T04:08:01.813Z,95.70
2023-04-26T04:13:03.751Z,95.70
2023-04-26T04:18:05.603Z,95.60
2023-04-26T04:23:07.959Z,95.50
2023-04-26T04:28:09.847Z,95.30
2023-04-26T04:33:12.250Z,95.10
2023-04-26T04:38:14.349Z,95.00
2023-04-26T04:43:16.826Z,94.80
2023-04-26T04:48:18.849Z,94.50
2023-04-26T04:53:21.945Z,94.20
2023-04-26T04:58:24.279Z,93.60
2023-04-26T05:03:26.580Z,93.10
2023-04-26T05:08:28.591Z,92.60
2023-04-26T05:13:30.460Z,92.00
2023-04-26T05:18:32.340Z,91.10
2023-04-26T05:23:34.595Z,90.50
2023-04-26T05:28:36.548Z,90.10
2023-04-26T05:33:38.512Z,90.20
2023-04-26T05:38:40.496Z,87.60
2023-04-26T05:43:42.327Z,85.90
2023-04-26T05:48:44.212Z,84.80
2023-04-26T05:53:46.217Z,84.20
2023-04-26T05:58:48.513Z,81.60
2023-04-26T06:03:50.890Z,80.10
2023-04-26T06:08:53.111Z,80.20
2023-04-26T06:13:55.118Z,78.30
2023-04-26T06:18:59.952Z,76.40
2023-04-26T06:24:01.790Z,77.10
2023-04-26T06:29:03.721Z,75.90
2023-04-26T06:34:05.571Z,75.10
2023-04-26T06:39:08.093Z,75.60
2023-04-26T06:44:09.966Z,72.30
2023-04-26T06:49:11.878Z,71.40
2023-04-26T06:54:13.763Z,71.80
2023-04-26T06:59:15.948Z,70.10
2023-04-26T07:04:18.997Z,71.50
2023-04-26T07:09:21.134Z,70.10
2023-04-26T07:14:23.895Z,71.00
2023-04-26T07:19:25.712Z,68.50
2023-04-26T07:24:27.679Z,67.50
2023-04-26T07:29:29.610Z,67.00
2023-04-26T07:34:31.556Z,67.20
2023-04-26T07:39:33.378Z,66.70
2023-04-26T07:44:37.246Z,65.60
2023-04-26T07:49:39.078Z,65.00
2023-04-26T07:54:40.952Z,66.50
2023-04-26T07:59:43.190Z,64.20
2023-04-26T08:04:52.726Z,67.10
2023-04-26T08:09:54.802Z,63.70
2023-04-26T08:14:56.626Z,64.40
2023-04-26T08:19:59.543Z,61.50
2023-04-26T08:25:01.451Z,62.60
2023-04-26T08:30:05.057Z,61.20
2023-04-26T08:35:07.344Z,60.20
2023-04-26T08:40:11.426Z,60.30
2023-04-26T08:45:13.503Z,58.90
2023-04-26T08:50:18.652Z,58.90
2023-04-26T08:55:21.520Z,59.80
2023-04-26T09:00:23.536Z,60.40
2023-04-26T09:05:26.752Z,62.20
2023-04-26T09:10:28.797Z,60.10
2023-04-26T09:15:30.745Z,60.50
2023-04-26T09:20:35.386Z,62.10
2023-04-26T09:25:37.908Z,62.80
2023-04-26T09:30:40.189Z,63.30
2023-04-26T09:35:43.403Z,63.70
2023-04-26T09:40:46.167Z,65.50
2023-04-26T09:45:58.020Z,62.40
2023-04-26T09:51:10.258Z,63.50
2023-04-26T09:56:14.329Z,60.40
2023-04-26T10:01:18.097Z,60.50
2023-04-26T10:06:20.096Z,62.60
2023-04-26T10:11:22.455Z,63.40
2023-04-26T10:16:24.663Z,62.10
2023-04-26T10:21:31.491Z,62.80
2023-04-26T10:26:49.893Z,62.60
2023-04-26T10:32:01.647Z,60.60
2023-04-26T10:37:18.162Z,61.70
2023-04-26T10:42:30.304Z,62.80
2023-04-26T10:47:34.462Z,60.50
2023-04-26T10:53:03.888Z,60.20
2023-04-26T10:58:29.014Z,61.40
2023-04-26T11:03:31.361Z,63.60
2023-04-26T11:08:34.243Z,67.20
2023-04-26T11:13:41.104Z,68.20
2023-04-26T11:18:46.970Z,66.80
2023-04-26T11:23:57.943Z,63.80
2023-04-26T11:28:59.771Z,62.70
2023-04-26T11:34:05.086Z,57.80
2023-04-26T11:39:07.130Z,58.20
2023-04-26T11:44:11.704Z,57.70
2023-04-26T11:49:13.617Z,58.70
2023-04-26T11:54:31.954Z,59.30
2023-04-26T11:59:33.814Z,60.40
2023-04-26T12:04:37.955Z,58.70
2023-04-26T12:09:42.643Z,58.90
2023-04-26T12:14:47.286Z,57.80
2023-04-26T12:19:50.007Z,56.20
2023-04-26T12:25:04.990Z,56.10
2023-04-26T12:30:07.868Z,57.80
2023-04-26T12:35:09.921Z,56.30
2023-04-26T12:40:16.224Z,54.90
2023-04-26T12:45:19.767Z,56.10
2023-04-26T12:50:21.966Z,56.40
2023-04-26T12:55:24.142Z,58.40
2023-04-26T13:00:26.986Z,58.90
2023-04-26T13:05:29.714Z,56.60
2023-04-26T13:10:32.956Z,58.40
2023-04-26T13:15:34.889Z,58.40
2023-04-26T13:20:38.156Z,58.80
2023-04-26T13:25:40.905Z,56.80
2023-04-26T13:30:42.794Z,55.10
2023-04-26T13:35:44.632Z,54.80
2023-04-26T13:40:46.531Z,55.10
2023-04-26T13:45:48.668Z,55.50
2023-04-26T13:50:50.543Z,54.60
2023-04-26T13:55:52.440Z,54.40
2023-04-26T14:00:54.241Z,55.20
2023-04-26T14:05:56.652Z,55.60
2023-04-26T14:10:58.540Z,53.40
2023-04-26T14:16:00.996Z,54.10
2023-04-26T14:21:02.907Z,52.20
2023-04-26T14:26:04.876Z,53.50
2023-04-26T14:31:07.050Z,55.70
2023-04-26T14:36:08.886Z,55.40
2023-04-26T14:41:16.999Z,54.00
2023-04-26T14:46:18.894Z,55.70
2023-04-26T14:51:21.023Z,56.70
2023-04-26T14:56:23.750Z,56.60
2023-04-26T15:01:30.320Z,57.60
2023-04-26T15:06:34.332Z,56.60
2023-04-26T15:11:36.558Z,57.20
2023-04-26T15:16:40.305Z,55.90
2023-04-26T15:21:42.630Z,56.70
2023-04-26T15:26:50.196Z,57.70
2023-04-26T15:31:52.229Z,56.80
2023-04-26T15:36:54.275Z,56.70
2023-04-26T15:41:56.113Z,57.00
2023-04-26T15:46:58.308Z,57.10
2023-04-26T15:52:00.488Z,57.70
2023-04-26T15:57:04.057Z,58.20
2023-04-26T16:02:06.234Z,58.20
2023-04-26T16:07:08.671Z,57.60
2023-04-26T16:12:10.754Z,57.90
2023-04-26T16:17:12.749Z,58.00
2023-04-26T16:22:14.918Z,58.40
2023-04-26T16:27:18.051Z,57.70
2023-04-26T16:32:21.013Z,57.70
2023-04-26T16:37:23.172Z,58.60
2023-04-26T16:42:25.104Z,58.30
2023-04-26T16:47:29.903Z,58.40
2023-04-26T16:52:31.854Z,58.20
2023-04-26T16:57:33.830Z,58.10
2023-04-26T17:02:36.329Z,58.30
2023-04-26T17:07:38.636Z,58.20
2023-04-26T17:12:40.471Z,58.80
2023-04-26T17:17:42.404Z,59.70
2023-04-26T17:23:06.782Z,59.70
2023-04-26T17:28:11.355Z,60.10
2023-04-26T17:33:13.324Z,61.40
2023-04-26T17:38:15.214Z,61.50
2023-04-26T17:43:17.080Z,62.30
2023-04-26T17:53:21.776Z,62.60
2023-04-26T17:58:24.661Z,64.10
2023-04-26T18:03:29.750Z,65.80
2023-04-26T18:08:32.330Z,64.50
2023-04-26T18:13:34.142Z,65.90
2023-04-26T18:18:35.956Z,66.40
2023-04-26T18:23:38.096Z,67.30
2023-04-26T18:28:40.159Z,67.20
2023-04-26T18:33:42.248Z,68.00
2023-04-26T18:38:44.656Z,68.30
2023-04-26T18:43:46.462Z,68.50
2023-04-26T18:48:48.266Z,70.10
2023-04-26T18:53:50.112Z,71.20
2023-04-26T18:58:51.974Z,71.20
2023-04-26T19:03:54.091Z,71.60
2023-04-26T19:08:56.506Z,72.80
2023-04-26T19:13:58.326Z,73.20
2023-04-26T19:19:00.138Z,73.20
2023-04-26T19:24:02.183Z,74.40
2023-04-26T19:29:06.153Z,75.70
2023-04-26T19:34:09.749Z,75.70
2023-04-26T19:39:12.736Z,76.70
2023-04-26T19:44:14.603Z,78.30
2023-04-26T19:49:16.437Z,79.70
2023-04-26T19:54:18.268Z,80.40
2023-04-26T19:59:20.649Z,80.20
2023-04-26T20:04:22.605Z,82.30
2023-04-26T20:09:24.879Z,83.50
2023-04-26T20:14:27.492Z,83.90
2023-04-26T20:19:29.568Z,84.20
2023-04-26T20:24:31.720Z,84.80
2023-04-26T20:29:33.560Z,85.00
2023-04-26T20:34:35.454Z,84.40
2023-04-26T20:39:37.263Z,83.60
2023-04-26T20:44:39.061Z,85.20
2023-04-26T20:49:41.071Z,87.70
2023-04-26T20:54:42.872Z,89.20
2023-04-26T20:59:44.665Z,90.00
2023-04-26T21:04:46.905Z,88.70
2023-04-26T21:09:51.887Z,89.20
2023-04-26T21:14:53.979Z,90.20
2023-04-26T21:19:55.823Z,89.50
2023-04-26T21:24:57.628Z,90.00
2023-04-26T21:29:59.739Z,89.30
2023-04-26T21:35:01.744Z,88.70
2023-04-26T21:40:05.009Z,89.20
2023-04-26T21:45:07.665Z,91.20
2023-04-26T21:50:10.524Z,91.10
2023-04-26T21:55:15.561Z,91.40
2023-04-26T22:00:18.740Z,91.70
2023-04-26T22:05:23.299Z,91.70
2023-04-26T22:10:25.678Z,91.40
2023-04-26T22:15:27.672Z,91.70
2023-04-26T22:20:29.974Z,91.70
2023-04-26T22:25:31.879Z,92.20
2023-04-26T22:30:33.827Z,91.90
2023-04-26T22:35:35.704Z,92.00
2023-04-26T22:40:37.540Z,92.00
2023-04-26T22:45:39.473Z,92.20
2023-04-26T22:50:42.390Z,92.40
2023-04-26T22:55:44.266Z,92.40
2023-04-26T23:00:46.157Z,92.10
2023-04-26T23:05:48.708Z,91.40
2023-04-26T23:10:50.675Z,92.10
2023-04-26T23:15:52.642Z,92.20
2023-04-26T23:20:54.476Z,92.20
2023-04-26T23:25:56.833Z,92.20
2023-04-26T23:30:58.784Z,92.30
2023-04-26T23:36:00.678Z,92.60
2023-04-26T23:41:02.565Z,92.30
2023-04-26T23:46:04.424Z,92.80
2023-04-26T23:51:06.945Z,93.60
2023-04-26T23:56:08.766Z,93.30
